^^
Marion, Virginia Banner
 

Adwolf, VA. Station Historical Data
[ Providing Data Since 6/07/2007 ]
Station Historical Data
Daily Summary for September 12, 2017 Units:  Both    English   Metric
« Previous Day
Next Day »
Daily Weekly Monthly Yearly Custom
  High: Low: Average:
Temperature: 68.8 °F /  20.4 °C 56.5 °F /  13.6 °C 62.5 °F /  16.9 °C
Dew Point: 64.2 °F /  17.9 °C 53.7 °F /  12.1 °C 58.9 °F /  14.9 °C
Humidity: 91% 80% 88%
Wind Speed: 21.9mph /  35.2km/h - 10.2mph /  16.4km/h
Wind Gust: 21.9mph /  35.2km/h - -
Wind- - ENE
Pressure: 30.09 in /  1018.8 hPa 29.84 in /  1010.4 hPa -
Precipitation: 0.31 in /  7.87 mm    
Historical Graphs
 
 
Tabular Data for September 12, 2017
Time Temperature Dew Point Pressure Wind Wind Speed Wind Gust Humidity Rainfall Rate (Hourly) solar Conditions
00:04 59.3 °F /  15.2 °C 54.4 °F /  12.4 °C 30.07in /  1018.2hPa NE 10.4mph /  16.7km/h 10.4mph /  16.7km/h 84% 0.00in /  0mm WeatherDisplay:10.37 W/m2 OVC
00:09 59.1 °F /  15.1 °C 54.6 °F /  12.6 °C 30.07in /  1018.2hPa North 13.8mph /  22.2km/h 13.8mph /  22.2km/h 85% 0.00in /  0mm WeatherDisplay:10.37 W/m2 OVC
00:14 59.0 °F /  15 °C 54.5 °F /  12.5 °C 30.08in /  1018.5hPa NNE 8.1mph /  13km/h 8.1mph /  13km/h 85% 0.00in /  0mm WeatherDisplay:10.37 W/m2 OVC
00:19 59.1 °F /  15.1 °C 54.6 °F /  12.6 °C 30.08in /  1018.5hPa NNE 20.7mph /  33.3km/h 20.7mph /  33.3km/h 85% 0.00in /  0mm WeatherDisplay:10.37 W/m2 OVC
00:24 59.0 °F /  15 °C 54.8 °F /  12.7 °C 30.07in /  1018.2hPa ENE 19.6mph /  31.5km/h 19.6mph /  31.5km/h 86% 0.00in /  0mm WeatherDisplay:10.37 W/m2 OVC
00:29 59.0 °F /  15 °C 54.8 °F /  12.7 °C 30.09in /  1018.8hPa ENE 11.0mph /  17.7km/h 11.0mph /  17.7km/h 86% 0.00in /  0mm WeatherDisplay:10.37 W/m2 OVC
00:34 58.9 °F /  14.9 °C 54.7 °F /  12.6 °C 30.08in /  1018.5hPa NE 10.4mph /  16.7km/h 10.4mph /  16.7km/h 86% 0.00in /  0mm WeatherDisplay:10.37 W/m2 OVC
00:39 58.6 °F /  14.8 °C 54.7 °F /  12.6 °C 30.07in /  1018.2hPa North 16.1mph /  25.9km/h 16.1mph /  25.9km/h 87% 0.00in /  0mm WeatherDisplay:10.37 W/m2 OVC
00:44 58.4 °F /  14.7 °C 54.8 °F /  12.7 °C 30.06in /  1017.8hPa NNE 16.1mph /  25.9km/h 16.1mph /  25.9km/h 88% 0.00in /  0mm WeatherDisplay:10.37 W/m2 -RA
00:49 58.2 °F /  14.6 °C 54.6 °F /  12.6 °C 30.07in /  1018.2hPa NNE 15.0mph /  24.1km/h 15.0mph /  24.1km/h 88% 0.01in /  0.25mm WeatherDisplay:10.37 W/m2 -RA
00:54 58.0 °F /  14.4 °C 54.4 °F /  12.4 °C 30.07in /  1018.2hPa NNE 15.0mph /  24.1km/h 15.0mph /  24.1km/h 88% 0.02in /  0.51mm WeatherDisplay:10.37 W/m2 -RA
00:59 57.9 °F /  14.4 °C 54.6 °F /  12.6 °C 30.07in /  1018.2hPa North 15.0mph /  24.1km/h 15.0mph /  24.1km/h 89% 0.02in /  0.51mm WeatherDisplay:10.37 W/m2 -RA
01:04 57.9 °F /  14.4 °C 54.6 °F /  12.6 °C 30.06in /  1017.8hPa NE 16.1mph /  25.9km/h 16.1mph /  25.9km/h 89% 0.02in /  0.51mm WeatherDisplay:10.37 W/m2 -RA
01:09 57.8 °F /  14.3 °C 54.5 °F /  12.5 °C 30.05in /  1017.5hPa North 16.1mph /  25.9km/h 16.1mph /  25.9km/h 89% 0.02in /  0.51mm WeatherDisplay:10.37 W/m2 -RA
01:14 57.5 °F /  14.2 °C 54.2 °F /  12.3 °C 30.05in /  1017.5hPa NE 16.1mph /  25.9km/h 16.1mph /  25.9km/h 89% 0.02in /  0.51mm WeatherDisplay:10.37 W/m2 -RA
01:19 57.5 °F /  14.2 °C 54.2 °F /  12.3 °C 30.04in /  1017.2hPa North 11.5mph /  18.5km/h 11.5mph /  18.5km/h 89% 0.02in /  0.51mm WeatherDisplay:10.37 W/m2 -RA
01:24 57.6 °F /  14.2 °C 54.3 °F /  12.4 °C 30.04in /  1017.2hPa North 12.7mph /  20.4km/h 12.7mph /  20.4km/h 89% 0.02in /  0.51mm WeatherDisplay:10.37 W/m2 -RA
01:25 57.5 °F /  14.2 °C 54.2 °F /  12.3 °C 30.04in /  1017.2hPa NNE 12.7mph /  20.4km/h 12.7mph /  20.4km/h 89% 0.02in /  0.51mm WeatherDisplay:10.37 W/m2 -RA
01:30 57.5 °F /  14.2 °C 54.2 °F /  12.3 °C 30.04in /  1017.2hPa ENE 12.7mph /  20.4km/h 12.7mph /  20.4km/h 89% 0.02in /  0.51mm WeatherDisplay:10.37 W/m2 -RA
01:35 57.7 °F /  14.3 °C 54.4 °F /  12.4 °C 30.05in /  1017.5hPa NE 12.7mph /  20.4km/h 12.7mph /  20.4km/h 89% 0.02in /  0.51mm WeatherDisplay:10.37 W/m2 -RA
01:40 57.9 °F /  14.4 °C 54.3 °F /  12.4 °C 30.04in /  1017.2hPa North 16.0mph /  25.7km/h 16.0mph /  25.7km/h 88% 0.02in /  0.51mm WeatherDisplay:10.37 W/m2 -RA
01:45 57.9 °F /  14.4 °C 54.3 °F /  12.4 °C 30.04in /  1017.2hPa NNE 12.7mph /  20.4km/h 12.7mph /  20.4km/h 88% 0.03in /  0.76mm WeatherDisplay:10.37 W/m2 RA
01:50 57.9 °F /  14.4 °C 54.3 °F /  12.4 °C 30.04in /  1017.2hPa NE 13.8mph /  22.2km/h 13.8mph /  22.2km/h 88% 0.03in /  0.76mm WeatherDisplay:10.37 W/m2 RA
01:55 57.9 °F /  14.4 °C 54.3 °F /  12.4 °C 30.04in /  1017.2hPa NNE 18.0mph /  29km/h 18.0mph /  29km/h 88% 0.02in /  0.51mm WeatherDisplay:10.37 W/m2 OVC
02:00 57.9 °F /  14.4 °C 54.3 °F /  12.4 °C 30.04in /  1017.2hPa NNE 11.5mph /  18.5km/h 11.5mph /  18.5km/h 88% 0.01in /  0.25mm WeatherDisplay:10.37 W/m2 OVC
02:05 57.9 °F /  14.4 °C 54.3 °F /  12.4 °C 30.04in /  1017.2hPa NNE 16.0mph /  25.7km/h 16.0mph /  25.7km/h 88% 0.02in /  0.51mm WeatherDisplay:10.37 W/m2 RA
02:10 57.9 °F /  14.4 °C 54.3 °F /  12.4 °C 30.03in /  1016.8hPa NNE 15.0mph /  24.1km/h 15.0mph /  24.1km/h 88% 0.02in /  0.51mm WeatherDisplay:10.37 W/m2 RA
02:15 57.8 °F /  14.3 °C 54.2 °F /  12.3 °C 30.04in /  1017.2hPa NNE 16.1mph /  25.9km/h 16.1mph /  25.9km/h 88% 0.02in /  0.51mm WeatherDisplay:10.37 W/m2 RA
02:20 57.8 °F /  14.3 °C 54.2 °F /  12.3 °C 30.03in /  1016.8hPa NE 16.1mph /  25.9km/h 16.1mph /  25.9km/h 88% 0.02in /  0.51mm WeatherDisplay:10.37 W/m2 OVC
02:25 57.7 °F /  14.3 °C 54.1 °F /  12.3 °C 30.04in /  1017.2hPa NE 16.1mph /  25.9km/h 16.1mph /  25.9km/h 88% 0.02in /  0.51mm WeatherDisplay:10.37 W/m2 -DZ
02:30 57.6 °F /  14.2 °C 54.3 °F /  12.4 °C 30.03in /  1016.8hPa North 16.1mph /  25.9km/h 16.1mph /  25.9km/h 89% 0.03in /  0.76mm WeatherDisplay:10.37 W/m2 -DZ
02:35 57.5 °F /  14.2 °C 54.2 °F /  12.3 °C 30.02in /  1016.5hPa NE 16.1mph /  25.9km/h 16.1mph /  25.9km/h 89% 0.04in /  1.02mm WeatherDisplay:10.37 W/m2 -DZ
02:40 57.4 °F /  14.1 °C 54.1 °F /  12.3 °C 30.02in /  1016.5hPa NNE 15.0mph /  24.1km/h 15.0mph /  24.1km/h 89% 0.04in /  1.02mm WeatherDisplay:10.37 W/m2 -DZ
02:45 57.3 °F /  14.1 °C 54.0 °F /  12.2 °C 30.02in /  1016.5hPa East 16.0mph /  25.7km/h 16.0mph /  25.7km/h 89% 0.05in /  1.27mm WeatherDisplay:10.37 W/m2 -DZ
02:50 57.4 °F /  14.1 °C 54.1 °F /  12.3 °C 30.01in /  1016.1hPa NE 19.6mph /  31.5km/h 19.6mph /  31.5km/h 89% 0.05in /  1.27mm WeatherDisplay:10.37 W/m2 -DZ
02:55 57.3 °F /  14.1 °C 54.0 °F /  12.2 °C 30.01in /  1016.1hPa NE 21.9mph /  35.2km/h 21.9mph /  35.2km/h 89% 0.06in /  1.52mm WeatherDisplay:10.37 W/m2 -DZ
03:00 57.3 °F /  14.1 °C 54.0 °F /  12.2 °C 30.01in /  1016.1hPa NE 21.9mph /  35.2km/h 21.9mph /  35.2km/h 89% 0.07in /  1.78mm WeatherDisplay:10.37 W/m2 -DZ
03:05 57.2 °F /  14 °C 53.9 °F /  12.2 °C 30.00in /  1015.8hPa NE 17.3mph /  27.8km/h 17.3mph /  27.8km/h 89% 0.07in /  1.78mm WeatherDisplay:10.37 W/m2 -RA
03:10 57.1 °F /  13.9 °C 53.8 °F /  12.1 °C 30.00in /  1015.8hPa ENE 17.0mph /  27.4km/h 17.0mph /  27.4km/h 89% 0.06in /  1.52mm WeatherDisplay:10.37 W/m2 -RA
03:15 57.2 °F /  14 °C 53.9 °F /  12.2 °C 30.01in /  1016.1hPa NE 13.0mph /  20.9km/h 13.0mph /  20.9km/h 89% 0.06in /  1.52mm WeatherDisplay:10.37 W/m2 -RA
03:20 57.3 °F /  14.1 °C 54.0 °F /  12.2 °C 30.01in /  1016.1hPa ENE 19.6mph /  31.5km/h 19.6mph /  31.5km/h 89% 0.07in /  1.78mm WeatherDisplay:10.37 W/m2 -RA
03:25 57.4 °F /  14.1 °C 54.1 °F /  12.3 °C 30.02in /  1016.5hPa NNE 16.1mph /  25.9km/h 16.1mph /  25.9km/h 89% 0.08in /  2.03mm WeatherDisplay:10.37 W/m2 RA
03:30 57.3 °F /  14.1 °C 54.0 °F /  12.2 °C 30.01in /  1016.1hPa NNE 13.8mph /  22.2km/h 13.8mph /  22.2km/h 89% 0.10in /  2.54mm WeatherDisplay:10.37 W/m2 RA
03:35 57.3 °F /  14.1 °C 54.4 °F /  12.4 °C 30.01in /  1016.1hPa ENE 18.4mph /  29.6km/h 18.4mph /  29.6km/h 90% 0.09in /  2.29mm WeatherDisplay:10.37 W/m2 RA
03:40 57.3 °F /  14.1 °C 54.4 °F /  12.4 °C 30.00in /  1015.8hPa ENE 18.4mph /  29.6km/h 18.4mph /  29.6km/h 90% 0.08in /  2.03mm WeatherDisplay:10.37 W/m2 RA
03:45 57.3 °F /  14.1 °C 54.4 °F /  12.4 °C 30.01in /  1016.1hPa NNE 17.3mph /  27.8km/h 17.3mph /  27.8km/h 90% 0.08in /  2.03mm WeatherDisplay:10.37 W/m2 OVC
03:50 57.4 °F /  14.1 °C 54.1 °F /  12.3 °C 30.00in /  1015.8hPa North 16.1mph /  25.9km/h 16.1mph /  25.9km/h 89% 0.08in /  2.03mm WeatherDisplay:10.37 W/m2 RA
03:55 57.4 °F /  14.1 °C 54.1 °F /  12.3 °C 29.99in /  1015.5hPa NE 17.0mph /  27.4km/h 17.0mph /  27.4km/h 89% 0.07in /  1.78mm WeatherDisplay:10.37 W/m2 RA
04:00 57.5 °F /  14.2 °C 54.2 °F /  12.3 °C 30.00in /  1015.8hPa NNE 12.7mph /  20.4km/h 12.7mph /  20.4km/h 89% 0.06in /  1.52mm WeatherDisplay:10.37 W/m2 OVC
04:05 57.5 °F /  14.2 °C 54.2 °F /  12.3 °C 30.00in /  1015.8hPa NE 15.0mph /  24.1km/h 15.0mph /  24.1km/h 89% 0.05in /  1.27mm WeatherDisplay:10.37 W/m2 -RA
04:10 57.6 °F /  14.2 °C 54.3 °F /  12.4 °C 30.00in /  1015.8hPa NNE 15.0mph /  24.1km/h 15.0mph /  24.1km/h 89% 0.05in /  1.27mm WeatherDisplay:10.37 W/m2 -RA
04:15 57.7 °F /  14.3 °C 54.4 °F /  12.4 °C 30.00in /  1015.8hPa NE 15.0mph /  24.1km/h 15.0mph /  24.1km/h 89% 0.05in /  1.27mm WeatherDisplay:10.37 W/m2 -RA
04:20 57.8 °F /  14.3 °C 54.5 °F /  12.5 °C 30.00in /  1015.8hPa North 16.1mph /  25.9km/h 16.1mph /  25.9km/h 89% 0.05in /  1.27mm WeatherDisplay:10.37 W/m2 -RA
04:25 58.0 °F /  14.4 °C 54.7 °F /  12.6 °C 29.99in /  1015.5hPa NE 17.3mph /  27.8km/h 17.3mph /  27.8km/h 89% 0.04in /  1.02mm WeatherDisplay:10.37 W/m2 OVC
04:30 58.0 °F /  14.4 °C 54.7 °F /  12.6 °C 29.99in /  1015.5hPa ENE 16.0mph /  25.7km/h 16.0mph /  25.7km/h 89% 0.03in /  0.76mm WeatherDisplay:10.37 W/m2 OVC
04:35 57.9 °F /  14.4 °C 54.6 °F /  12.6 °C 29.99in /  1015.5hPa East 15.0mph /  24.1km/h 15.0mph /  24.1km/h 89% 0.03in /  0.76mm WeatherDisplay:10.37 W/m2 RA
04:40 57.8 °F /  14.3 °C 54.8 °F /  12.7 °C 29.98in /  1015.1hPa NNE 15.0mph /  24.1km/h 15.0mph /  24.1km/h 90% 0.02in /  0.51mm WeatherDisplay:10.37 W/m2 RA
04:45 57.8 °F /  14.3 °C 54.8 °F /  12.7 °C 29.98in /  1015.1hPa East 15.0mph /  24.1km/h 15.0mph /  24.1km/h 90% 0.03in /  0.76mm WeatherDisplay:10.37 W/m2 -RA
04:50 57.7 °F /  14.3 °C 54.7 °F /  12.6 °C 29.99in /  1015.5hPa NE 11.5mph /  18.5km/h 11.5mph /  18.5km/h 90% 0.03in /  0.76mm WeatherDisplay:10.37 W/m2 -RA
04:55 57.6 °F /  14.2 °C 54.6 °F /  12.6 °C 29.98in /  1015.1hPa NE 14.0mph /  22.5km/h 14.0mph /  22.5km/h 90% 0.02in /  0.51mm WeatherDisplay:10.37 W/m2 -RA
05:00 57.5 °F /  14.2 °C 54.5 °F /  12.5 °C 29.98in /  1015.1hPa NNE 13.8mph /  22.2km/h 13.8mph /  22.2km/h 90% 0.02in /  0.51mm WeatherDisplay:10.37 W/m2 -RA
05:05 57.3 °F /  14.1 °C 54.4 °F /  12.4 °C 29.98in /  1015.1hPa NE 14.0mph /  22.5km/h 14.0mph /  22.5km/h 90% 0.02in /  0.51mm WeatherDisplay:10.37 W/m2 -RA
05:10 57.2 °F /  14 °C 54.3 °F /  12.4 °C 29.98in /  1015.1hPa NE 13.8mph /  22.2km/h 13.8mph /  22.2km/h 90% 0.02in /  0.51mm WeatherDisplay:10.37 W/m2 -RA
05:15 57.1 °F /  13.9 °C 54.2 °F /  12.3 °C 29.98in /  1015.1hPa NNE 17.3mph /  27.8km/h 17.3mph /  27.8km/h 90% 0.02in /  0.51mm WeatherDisplay:10.37 W/m2 -RA
05:20 57.0 °F /  13.9 °C 54.1 °F /  12.3 °C 29.98in /  1015.1hPa NE 11.0mph /  17.7km/h 11.0mph /  17.7km/h 90% 0.03in /  0.76mm WeatherDisplay:10.37 W/m2 -RA
05:25 57.0 °F /  13.9 °C 54.1 °F /  12.3 °C 29.99in /  1015.5hPa ENE 13.8mph /  22.2km/h 13.8mph /  22.2km/h 90% 0.03in /  0.76mm WeatherDisplay:10.37 W/m2 RA
05:30 57.0 °F /  13.9 °C 54.1 °F /  12.3 °C 29.98in /  1015.1hPa NE 17.0mph /  27.4km/h 17.0mph /  27.4km/h 90% 0.03in /  0.76mm WeatherDisplay:10.37 W/m2 OVC
05:35 56.9 °F /  13.8 °C 54.0 °F /  12.2 °C 29.98in /  1015.1hPa NNE 16.1mph /  25.9km/h 16.1mph /  25.9km/h 90% 0.03in /  0.76mm WeatherDisplay:10.37 W/m2 OVC
05:40 56.9 °F /  13.8 °C 54.0 °F /  12.2 °C 29.98in /  1015.1hPa NE 16.1mph /  25.9km/h 16.1mph /  25.9km/h 90% 0.02in /  0.51mm WeatherDisplay:10.37 W/m2 OVC
05:45 56.9 °F /  13.8 °C 54.0 °F /  12.2 °C 29.98in /  1015.1hPa ENE 17.3mph /  27.8km/h 17.3mph /  27.8km/h 90% 0.02in /  0.51mm WeatherDisplay:10.37 W/m2 OVC
05:50 56.8 °F /  13.8 °C 54.2 °F /  12.3 °C 29.98in /  1015.1hPa NNE 10.4mph /  16.7km/h 10.4mph /  16.7km/h 91% 0.01in /  0.25mm WeatherDisplay:10.37 W/m2 OVC
05:55 56.8 °F /  13.8 °C 54.2 °F /  12.3 °C 29.98in /  1015.1hPa East 13.0mph /  20.9km/h 13.0mph /  20.9km/h 91% 0.01in /  0.25mm WeatherDisplay:10.37 W/m2 OVC
06:00 56.7 °F /  13.7 °C 54.1 °F /  12.3 °C 29.98in /  1015.1hPa ENE 17.0mph /  27.4km/h 17.0mph /  27.4km/h 91% 0.01in /  0.25mm WeatherDisplay:10.37 W/m2 OVC
06:05 56.7 °F /  13.7 °C 54.1 °F /  12.3 °C 29.98in /  1015.1hPa NE 12.7mph /  20.4km/h 12.7mph /  20.4km/h 91% 0.01in /  0.25mm WeatherDisplay:10.37 W/m2 -RA
06:10 56.6 °F /  13.7 °C 53.7 °F /  12.1 °C 29.97in /  1014.8hPa NE 14.0mph /  22.5km/h 14.0mph /  22.5km/h 90% 0.02in /  0.51mm WeatherDisplay:10.37 W/m2 -RA
06:15 56.6 °F /  13.7 °C 54.0 °F /  12.2 °C 29.97in /  1014.8hPa ENE 20.0mph /  32.2km/h 20.0mph /  32.2km/h 91% 0.02in /  0.51mm WeatherDisplay:10.37 W/m2 -RA
06:20 56.6 °F /  13.7 °C 53.7 °F /  12.1 °C 29.98in /  1015.1hPa NE 15.0mph /  24.1km/h 15.0mph /  24.1km/h 90% 0.02in /  0.51mm WeatherDisplay:10.37 W/m2 -RA
06:25 56.5 °F /  13.6 °C 53.9 °F /  12.2 °C 29.97in /  1014.8hPa NNE 13.8mph /  22.2km/h 13.8mph /  22.2km/h 91% 0.01in /  0.25mm WeatherDisplay:10.37 W/m2 -RA
06:30 56.5 °F /  13.6 °C 53.9 °F /  12.2 °C 29.97in /  1014.8hPa North 17.0mph /  27.4km/h 17.0mph /  27.4km/h 91% 0.01in /  0.25mm WeatherDisplay:10.37 W/m2 -RA
06:35 56.5 °F /  13.6 °C 53.9 °F /  12.2 °C 29.97in /  1014.8hPa NNE 16.1mph /  25.9km/h 16.1mph /  25.9km/h 91% 0.01in /  0.25mm WeatherDisplay:10.37 W/m2 -RA
06:40 56.5 °F /  13.6 °C 53.9 °F /  12.2 °C 29.97in /  1014.8hPa North 16.1mph /  25.9km/h 16.1mph /  25.9km/h 91% 0.01in /  0.25mm WeatherDisplay:10.37 W/m2 -RA
06:45 56.6 °F /  13.7 °C 54.0 °F /  12.2 °C 29.98in /  1015.1hPa NE 16.1mph /  25.9km/h 16.1mph /  25.9km/h 91% 0.01in /  0.25mm WeatherDisplay:10.37 W/m2 -RA
06:50 56.7 °F /  13.7 °C 54.1 °F /  12.3 °C 29.98in /  1015.1hPa NE 11.5mph /  18.5km/h 11.5mph /  18.5km/h 91% 0.02in /  0.51mm WeatherDisplay:10.37 W/m2 -RA
06:55 56.9 °F /  13.8 °C 54.3 °F /  12.4 °C 29.97in /  1014.8hPa NNE 13.0mph /  20.9km/h 13.0mph /  20.9km/h 91% 0.02in /  0.51mm WeatherDisplay:10.37 W/m2 -RA
07:00 56.9 °F /  13.8 °C 54.0 °F /  12.2 °C 29.98in /  1015.1hPa NNE 15.0mph /  24.1km/h 15.0mph /  24.1km/h 90% 0.02in /  0.51mm WeatherDisplay:10.37 W/m2 -RA
07:05 57.0 °F /  13.9 °C 54.1 °F /  12.3 °C 29.98in /  1015.1hPa NNE 10.0mph /  16.1km/h 10.0mph /  16.1km/h 90% 0.02in /  0.51mm WeatherDisplay:10.37 W/m2 -RA
07:10 57.1 °F /  13.9 °C 54.2 °F /  12.3 °C 29.98in /  1015.1hPa NNE 11.5mph /  18.5km/h 11.5mph /  18.5km/h 90% 0.02in /  0.51mm WeatherDisplay:10.37 W/m2 -RA
07:15 57.1 °F /  13.9 °C 54.2 °F /  12.3 °C 29.98in /  1015.1hPa NNE 14.0mph /  22.5km/h 14.0mph /  22.5km/h 90% 0.01in /  0.25mm WeatherDisplay:10.37 W/m2 -RA
07:20 57.1 °F /  13.9 °C 54.2 °F /  12.3 °C 29.98in /  1015.1hPa NE 11.0mph /  17.7km/h 11.0mph /  17.7km/h 90% 0.01in /  0.25mm WeatherDisplay:10.37 W/m2 -RA
07:25 57.1 °F /  13.9 °C 54.2 °F /  12.3 °C 29.98in /  1015.1hPa North 18.4mph /  29.6km/h 18.4mph /  29.6km/h 90% 0.01in /  0.25mm WeatherDisplay:10.37 W/m2 -RA
07:30 57.1 °F /  13.9 °C 54.2 °F /  12.3 °C 29.99in /  1015.5hPa NE 18.4mph /  29.6km/h 18.4mph /  29.6km/h 90% 0.01in /  0.25mm WeatherDisplay:10.37 W/m2 -RA
07:35 57.1 °F /  13.9 °C 54.2 °F /  12.3 °C 29.99in /  1015.5hPa NNE 11.5mph /  18.5km/h 11.5mph /  18.5km/h 90% 0.01in /  0.25mm WeatherDisplay:10.37 W/m2 -RA
07:40 57.1 °F /  13.9 °C 54.2 °F /  12.3 °C 29.98in /  1015.1hPa NNE 15.0mph /  24.1km/h 15.0mph /  24.1km/h 90% 0.01in /  0.25mm WeatherDisplay:10.37 W/m2 -RA
07:45 57.0 °F /  13.9 °C 54.1 °F /  12.3 °C 29.99in /  1015.5hPa NNE 15.0mph /  24.1km/h 15.0mph /  24.1km/h 90% 0.01in /  0.25mm WeatherDisplay:10.37 W/m2 OVC
07:50 57.0 °F /  13.9 °C 54.1 °F /  12.3 °C 30.00in /  1015.8hPa North 9.2mph /  14.8km/h 9.2mph /  14.8km/h 90% 0.01in /  0.25mm WeatherDisplay:10.37 W/m2 OVC
07:55 57.0 °F /  13.9 °C 54.1 °F /  12.3 °C 30.00in /  1015.8hPa North 9.2mph /  14.8km/h 9.2mph /  14.8km/h 90% 0.00in /  0mm WeatherDisplay:10.37 W/m2 OVC
08:00 56.9 °F /  13.8 °C 54.0 °F /  12.2 °C 29.99in /  1015.5hPa NE 10.4mph /  16.7km/h 10.4mph /  16.7km/h 90% 0.01in /  0.25mm WeatherDisplay:10.37 W/m2 RA
08:05 56.8 °F /  13.8 °C 54.2 °F /  12.3 °C 30.00in /  1015.8hPa ENE 10.0mph /  16.1km/h 10.0mph /  16.1km/h 91% 0.02in /  0.51mm WeatherDisplay:10.37 W/m2 RA
08:10 56.8 °F /  13.8 °C 54.2 °F /  12.3 °C 29.99in /  1015.5hPa NNE 9.2mph /  14.8km/h 9.2mph /  14.8km/h 91% 0.03in /  0.76mm WeatherDisplay:10.37 W/m2 RA
08:15 56.9 °F /  13.8 °C 54.3 °F /  12.4 °C 29.99in /  1015.5hPa NNE 9.2mph /  14.8km/h 9.2mph /  14.8km/h 91% 0.03in /  0.76mm WeatherDisplay:10.37 W/m2 RA
08:20 57.0 °F /  13.9 °C 54.4 °F /  12.4 °C 30.00in /  1015.8hPa NNE 8.0mph /  12.9km/h 8.0mph /  12.9km/h 91% 0.03in /  0.76mm WeatherDisplay:10.37 W/m2 OVC
08:25 57.2 °F /  14 °C 54.6 °F /  12.6 °C 29.99in /  1015.5hPa ENE 11.5mph /  18.5km/h 11.5mph /  18.5km/h 91% 0.03in /  0.76mm WeatherDisplay:10.37 W/m2 OVC
08:30 57.4 °F /  14.1 °C 54.8 °F /  12.7 °C 29.99in /  1015.5hPa NNE 11.5mph /  18.5km/h 11.5mph /  18.5km/h 91% 0.04in /  1.02mm WeatherDisplay:10.37 W/m2 RA
08:35 57.4 °F /  14.1 °C 54.8 °F /  12.7 °C 29.99in /  1015.5hPa NE 15.0mph /  24.1km/h 15.0mph /  24.1km/h 91% 0.04in /  1.02mm WeatherDisplay:10.37 W/m2 RA
08:40 57.4 °F /  14.1 °C 54.8 °F /  12.7 °C 30.00in /  1015.8hPa East 13.0mph /  20.9km/h 13.0mph /  20.9km/h 91% 0.05in /  1.27mm WeatherDisplay:10.37 W/m2 RA
08:45 57.4 °F /  14.1 °C 54.8 °F /  12.7 °C 30.00in /  1015.8hPa NNE 11.5mph /  18.5km/h 11.5mph /  18.5km/h 91% 0.05in /  1.27mm WeatherDisplay:10.37 W/m2 -RA
08:50 57.5 °F /  14.2 °C 54.9 °F /  12.7 °C 30.00in /  1015.8hPa North 11.0mph /  17.7km/h 11.0mph /  17.7km/h 91% 0.05in /  1.27mm WeatherDisplay:10.37 W/m2 -RA
08:55 57.5 °F /  14.2 °C 54.9 °F /  12.7 °C 30.00in /  1015.8hPa NNE 12.7mph /  20.4km/h 12.7mph /  20.4km/h 91% 0.06in /  1.52mm WeatherDisplay:10.37 W/m2 -RA
09:00 57.7 °F /  14.3 °C 55.1 °F /  12.8 °C 30.00in /  1015.8hPa NNE 12.7mph /  20.4km/h 12.7mph /  20.4km/h 91% 0.06in /  1.52mm WeatherDisplay:10.37 W/m2 -RA
09:05 57.8 °F /  14.3 °C 55.1 °F /  12.8 °C 29.99in /  1015.5hPa North 13.0mph /  20.9km/h 13.0mph /  20.9km/h 91% 0.05in /  1.27mm WeatherDisplay:10.37 W/m2 -RA
09:10 58.0 °F /  14.4 °C 55.3 °F /  12.9 °C 29.99in /  1015.5hPa North 14.0mph /  22.5km/h 14.0mph /  22.5km/h 91% 0.04in /  1.02mm WeatherDisplay:10.37 W/m2 -RA
09:15 58.2 °F /  14.6 °C 55.5 °F /  13.1 °C 29.99in /  1015.5hPa NE 11.5mph /  18.5km/h 11.5mph /  18.5km/h 91% 0.03in /  0.76mm WeatherDisplay:10.37 W/m2 -RA
09:20 58.2 °F /  14.6 °C 55.5 °F /  13.1 °C 29.99in /  1015.5hPa NNE 16.0mph /  25.7km/h 16.0mph /  25.7km/h 91% 0.03in /  0.76mm WeatherDisplay:10.37 W/m2 -RA
09:25 58.3 °F /  14.6 °C 55.6 °F /  13.1 °C 30.00in /  1015.8hPa North 16.1mph /  25.9km/h 16.1mph /  25.9km/h 91% 0.04in /  1.02mm WeatherDisplay:10.37 W/m2 RA
09:30 58.4 °F /  14.7 °C 55.7 °F /  13.2 °C 30.00in /  1015.8hPa North 16.1mph /  25.9km/h 16.1mph /  25.9km/h 91% 0.04in /  1.02mm WeatherDisplay:10.37 W/m2 RA
09:31 58.4 °F /  14.7 °C 55.7 °F /  13.2 °C 30.00in /  1015.8hPa NNE 16.1mph /  25.9km/h 16.1mph /  25.9km/h 91% 0.04in /  1.02mm WeatherDisplay:10.37 W/m2 RA
09:36 58.5 °F /  14.7 °C 55.8 °F /  13.2 °C 30.00in /  1015.8hPa NNE 11.5mph /  18.5km/h 11.5mph /  18.5km/h 91% 0.03in /  0.76mm WeatherDisplay:10.37 W/m2 RA
09:41 58.6 °F /  14.8 °C 55.9 °F /  13.3 °C 30.00in /  1015.8hPa NNE 11.5mph /  18.5km/h 11.5mph /  18.5km/h 91% 0.04in /  1.02mm WeatherDisplay:10.37 W/m2 RA
09:46 58.8 °F /  14.9 °C 56.1 °F /  13.4 °C 30.00in /  1015.8hPa NNE 11.5mph /  18.5km/h 11.5mph /  18.5km/h 91% 0.03in /  0.76mm WeatherDisplay:10.37 W/m2 RA
09:56 59.4 °F /  15.2 °C 56.7 °F /  13.7 °C 30.00in /  1015.8hPa NNE 10.4mph /  16.7km/h 10.4mph /  16.7km/h 91% 0.03in /  0.76mm WeatherDisplay:10.37 W/m2 OVC
10:01 59.5 °F /  15.3 °C 56.8 °F /  13.8 °C 30.00in /  1015.8hPa NE 15.0mph /  24.1km/h 15.0mph /  24.1km/h 91% 0.02in /  0.51mm WeatherDisplay:10.37 W/m2 OVC
10:06 59.7 °F /  15.4 °C 57.0 °F /  13.9 °C 30.01in /  1016.1hPa ENE 12.0mph /  19.3km/h 12.0mph /  19.3km/h 91% 0.02in /  0.51mm WeatherDisplay:10.37 W/m2 -RA
10:11 59.8 °F /  15.4 °C 57.1 °F /  13.9 °C 30.01in /  1016.1hPa NNE 10.4mph /  16.7km/h 10.4mph /  16.7km/h 91% 0.02in /  0.51mm WeatherDisplay:10.37 W/m2 -RA
10:16 59.7 °F /  15.4 °C 57.0 °F /  13.9 °C 30.01in /  1016.1hPa NNE 13.0mph /  20.9km/h 13.0mph /  20.9km/h 91% 0.03in /  0.76mm WeatherDisplay:10.37 W/m2 -RA
10:21 59.5 °F /  15.3 °C 56.8 °F /  13.8 °C 30.00in /  1015.8hPa NE 15.0mph /  24.1km/h 15.0mph /  24.1km/h 91% 0.03in /  0.76mm WeatherDisplay:10.37 W/m2 -RA
10:26 59.4 °F /  15.2 °C 56.7 °F /  13.7 °C 30.00in /  1015.8hPa ENE 12.0mph /  19.3km/h 12.0mph /  19.3km/h 91% 0.03in /  0.76mm WeatherDisplay:10.37 W/m2 -RA
10:31 59.4 °F /  15.2 °C 56.7 °F /  13.7 °C 30.00in /  1015.8hPa NE 11.5mph /  18.5km/h 11.5mph /  18.5km/h 91% 0.02in /  0.51mm WeatherDisplay:10.37 W/m2 -RA
10:36 59.5 °F /  15.3 °C 56.8 °F /  13.8 °C 30.00in /  1015.8hPa NNE 10.4mph /  16.7km/h 10.4mph /  16.7km/h 91% 0.02in /  0.51mm WeatherDisplay:10.37 W/m2 -RA
10:41 59.5 °F /  15.3 °C 56.8 °F /  13.8 °C 30.00in /  1015.8hPa NE 12.7mph /  20.4km/h 12.7mph /  20.4km/h 91% 0.02in /  0.51mm WeatherDisplay:10.37 W/m2 -RA
10:46 59.5 °F /  15.3 °C 56.8 °F /  13.8 °C 30.00in /  1015.8hPa ENE 16.1mph /  25.9km/h 16.1mph /  25.9km/h 91% 0.01in /  0.25mm WeatherDisplay:10.37 W/m2 -RA
10:51 59.6 °F /  15.3 °C 56.9 °F /  13.8 °C 29.99in /  1015.5hPa NE 16.1mph /  25.9km/h 16.1mph /  25.9km/h 91% 0.01in /  0.25mm WeatherDisplay:10.37 W/m2 -RA
10:56 59.8 °F /  15.4 °C 57.1 °F /  13.9 °C 29.99in /  1015.5hPa North 16.1mph /  25.9km/h 16.1mph /  25.9km/h 91% 0.01in /  0.25mm WeatherDisplay:10.37 W/m2 -RA
11:01 60.0 °F /  15.6 °C 57.3 °F /  14.1 °C 29.99in /  1015.5hPa NE 17.0mph /  27.4km/h 17.0mph /  27.4km/h 91% 0.01in /  0.25mm WeatherDisplay:10.37 W/m2 -RA
11:06 59.9 °F /  15.5 °C 57.2 °F /  14 °C 29.99in /  1015.5hPa North 15.0mph /  24.1km/h 15.0mph /  24.1km/h 91% 0.02in /  0.51mm WeatherDisplay:10.37 W/m2 -RA
11:11 59.8 °F /  15.4 °C 57.1 °F /  13.9 °C 29.99in /  1015.5hPa NNE 15.0mph /  24.1km/h 15.0mph /  24.1km/h 91% 0.02in /  0.51mm WeatherDisplay:10.37 W/m2 -RA
11:19 59.8 °F /  15.4 °C 57.1 °F /  13.9 °C 29.99in /  1015.5hPa NNE 10.4mph /  16.7km/h 10.4mph /  16.7km/h 91% 0.01in /  0.25mm WeatherDisplay:10.37 W/m2 -RA
11:24 59.9 °F /  15.5 °C 57.2 °F /  14 °C 29.98in /  1015.1hPa NNE 10.4mph /  16.7km/h 10.4mph /  16.7km/h 91% 0.01in /  0.25mm WeatherDisplay:10.37 W/m2 -RA
11:29 59.9 °F /  15.5 °C 57.2 °F /  14 °C 29.98in /  1015.1hPa North 11.0mph /  17.7km/h 11.0mph /  17.7km/h 91% 0.01in /  0.25mm WeatherDisplay:10.37 W/m2 -RA
11:34 60.0 °F /  15.6 °C 57.3 °F /  14.1 °C 29.98in /  1015.1hPa North 11.5mph /  18.5km/h 11.5mph /  18.5km/h 91% 0.01in /  0.25mm WeatherDisplay:10.37 W/m2 -RA
11:39 60.1 °F /  15.6 °C 57.4 °F /  14.1 °C 29.98in /  1015.1hPa NNE 10.4mph /  16.7km/h 10.4mph /  16.7km/h 91% 0.01in /  0.25mm WeatherDisplay:10.37 W/m2 -RA
11:44 60.2 °F /  15.7 °C 57.5 °F /  14.2 °C 29.98in /  1015.1hPa North 12.0mph /  19.3km/h 12.0mph /  19.3km/h 91% 0.01in /  0.25mm WeatherDisplay:10.37 W/m2 -RA
11:49 60.5 °F /  15.8 °C 57.8 °F /  14.3 °C 29.97in /  1014.8hPa NNE 11.5mph /  18.5km/h 11.5mph /  18.5km/h 91% 0.01in /  0.25mm WeatherDisplay:10.37 W/m2 -RA
11:54 60.7 °F /  15.9 °C 58.0 °F /  14.4 °C 29.98in /  1015.1hPa North 11.5mph /  18.5km/h 11.5mph /  18.5km/h 91% 0.01in /  0.25mm WeatherDisplay:10.37 W/m2 -RA
11:59 60.8 °F /  16 °C 58.1 °F /  14.5 °C 29.98in /  1015.1hPa NNE 11.5mph /  18.5km/h 11.5mph /  18.5km/h 91% 0.01in /  0.25mm WeatherDisplay:10.37 W/m2 -RA
12:04 61.1 °F /  16.2 °C 58.4 °F /  14.7 °C 29.97in /  1014.8hPa NNE 12.0mph /  19.3km/h 12.0mph /  19.3km/h 91% 0.01in /  0.25mm WeatherDisplay:10.37 W/m2 -RA
12:09 61.9 °F /  16.6 °C 59.2 °F /  15.1 °C 29.97in /  1014.8hPa NE 10.4mph /  16.7km/h 10.4mph /  16.7km/h 91% 0.00in /  0mm WeatherDisplay:10.37 W/m2 -RA
12:14 62.5 °F /  16.9 °C 59.5 °F /  15.3 °C 29.98in /  1015.1hPa NNE 10.4mph /  16.7km/h 10.4mph /  16.7km/h 90% 0.00in /  0mm WeatherDisplay:10.37 W/m2 -RA
12:19 63.0 °F /  17.2 °C 60.0 °F /  15.6 °C 29.98in /  1015.1hPa NNE 5.8mph /  9.3km/h 5.8mph /  9.3km/h 90% 0.00in /  0mm WeatherDisplay:10.37 W/m2 -RA
12:24 63.4 °F /  17.4 °C 60.4 °F /  15.8 °C 29.98in /  1015.1hPa NE 12.0mph /  19.3km/h 12.0mph /  19.3km/h 90% 0.00in /  0mm WeatherDisplay:10.37 W/m2 OVC
12:29 63.7 °F /  17.6 °C 60.4 °F /  15.8 °C 29.97in /  1014.8hPa NE 11.5mph /  18.5km/h 11.5mph /  18.5km/h 89% 0.00in /  0mm WeatherDisplay:10.37 W/m2 OVC
12:34 63.8 °F /  17.7 °C 60.5 °F /  15.8 °C 29.97in /  1014.8hPa NNE 11.5mph /  18.5km/h 11.5mph /  18.5km/h 89% 0.00in /  0mm WeatherDisplay:10.37 W/m2 OVC
12:39 63.9 °F /  17.7 °C 60.6 °F /  15.9 °C 29.97in /  1014.8hPa NNE 11.5mph /  18.5km/h 11.5mph /  18.5km/h 89% 0.00in /  0mm WeatherDisplay:10.37 W/m2 OVC
12:44 64.0 °F /  17.8 °C 60.7 °F /  15.9 °C 29.97in /  1014.8hPa NNE 10.4mph /  16.7km/h 10.4mph /  16.7km/h 89% 0.00in /  0mm WeatherDisplay:10.37 W/m2 OVC
12:49 64.1 °F /  17.8 °C 61.1 °F /  16.2 °C 29.97in /  1014.8hPa NNE 11.5mph /  18.5km/h 11.5mph /  18.5km/h 90% 0.00in /  0mm WeatherDisplay:10.37 W/m2 OVC
12:54 64.2 °F /  17.9 °C 60.8 °F /  16 °C 29.97in /  1014.8hPa NNE 10.4mph /  16.7km/h 10.4mph /  16.7km/h 89% 0.00in /  0mm WeatherDisplay:10.37 W/m2 OVC
12:59 64.3 °F /  17.9 °C 60.9 °F /  16.1 °C 29.97in /  1014.8hPa NNE 10.4mph /  16.7km/h 10.4mph /  16.7km/h 89% 0.00in /  0mm WeatherDisplay:10.37 W/m2 OVC
13:04 64.4 °F /  18 °C 61.0 °F /  16.1 °C 29.97in /  1014.8hPa North 10.4mph /  16.7km/h 10.4mph /  16.7km/h 89% 0.00in /  0mm WeatherDisplay:10.37 W/m2 -RA
13:09 64.6 °F /  18.1 °C 61.2 °F /  16.2 °C 29.97in /  1014.8hPa NNE 10.4mph /  16.7km/h 10.4mph /  16.7km/h 89% 0.00in /  0mm WeatherDisplay:10.37 W/m2 -RA
13:14 64.7 °F /  18.2 °C 61.3 °F /  16.3 °C 29.97in /  1014.8hPa North 11.5mph /  18.5km/h 11.5mph /  18.5km/h 89% 0.00in /  0mm WeatherDisplay:10.37 W/m2 -RA
13:19 64.8 °F /  18.2 °C 61.1 °F /  16.2 °C 29.97in /  1014.8hPa NNE 9.2mph /  14.8km/h 9.2mph /  14.8km/h 88% 0.00in /  0mm WeatherDisplay:10.37 W/m2 -RA
13:24 64.9 °F /  18.3 °C 61.2 °F /  16.2 °C 29.96in /  1014.4hPa NNE 10.0mph /  16.1km/h 10.0mph /  16.1km/h 88% 0.00in /  0mm WeatherDisplay:10.37 W/m2 -DZ
13:29 65.3 °F /  18.5 °C 61.6 °F /  16.4 °C 29.96in /  1014.4hPa NNE 13.8mph /  22.2km/h 13.8mph /  22.2km/h 88% 0.00in /  0mm WeatherDisplay:10.37 W/m2 -DZ
13:34 65.6 °F /  18.7 °C 61.9 °F /  16.6 °C 29.96in /  1014.4hPa NE 11.5mph /  18.5km/h 11.5mph /  18.5km/h 88% 0.00in /  0mm WeatherDisplay:10.37 W/m2 -DZ
13:39 65.9 °F /  18.8 °C 62.2 °F /  16.8 °C 29.96in /  1014.4hPa NE 9.2mph /  14.8km/h 9.2mph /  14.8km/h 88% 0.00in /  0mm WeatherDisplay:10.37 W/m2 -DZ
13:44 66.1 °F /  18.9 °C 62.1 °F /  16.7 °C 29.96in /  1014.4hPa NE 12.0mph /  19.3km/h 12.0mph /  19.3km/h 87% 0.00in /  0mm WeatherDisplay:10.37 W/m2 OVC
13:49 66.3 °F /  19.1 °C 62.3 °F /  16.8 °C 29.96in /  1014.4hPa NE 11.5mph /  18.5km/h 11.5mph /  18.5km/h 87% 0.00in /  0mm WeatherDisplay:10.37 W/m2 OVC
13:54 66.4 °F /  19.1 °C 62.4 °F /  16.9 °C 29.96in /  1014.4hPa North 10.4mph /  16.7km/h 10.4mph /  16.7km/h 87% 0.00in /  0mm WeatherDisplay:10.37 W/m2 OVC
13:59 66.3 °F /  19.1 °C 62.3 °F /  16.8 °C 29.95in /  1014.1hPa NNE 13.8mph /  22.2km/h 13.8mph /  22.2km/h 87% 0.00in /  0mm WeatherDisplay:10.37 W/m2 OVC
14:04 66.3 °F /  19.1 °C 62.3 °F /  16.8 °C 29.95in /  1014.1hPa ENE 10.4mph /  16.7km/h 10.4mph /  16.7km/h 87% 0.00in /  0mm WeatherDisplay:10.37 W/m2 OVC
14:09 66.3 °F /  19.1 °C 62.6 °F /  17 °C 29.95in /  1014.1hPa NE 9.2mph /  14.8km/h 9.2mph /  14.8km/h 88% 0.00in /  0mm WeatherDisplay:10.37 W/m2 OVC
14:14 66.4 °F /  19.1 °C 62.4 °F /  16.9 °C 29.95in /  1014.1hPa NE 9.2mph /  14.8km/h 9.2mph /  14.8km/h 87% 0.00in /  0mm WeatherDisplay:10.37 W/m2 OVC
14:19 66.5 °F /  19.2 °C 62.8 °F /  17.1 °C 29.95in /  1014.1hPa ENE 8.1mph /  13km/h 8.1mph /  13km/h 88% 0.00in /  0mm WeatherDisplay:10.37 W/m2 OVC
14:24 66.4 °F /  19.1 °C 62.7 °F /  17.1 °C 29.95in /  1014.1hPa ENE 5.8mph /  9.3km/h 5.8mph /  9.3km/h 88% 0.00in /  0mm WeatherDisplay:10.37 W/m2 OVC
14:29 66.4 °F /  19.1 °C 62.7 °F /  17.1 °C 29.95in /  1014.1hPa East 10.4mph /  16.7km/h 10.4mph /  16.7km/h 88% 0.00in /  0mm WeatherDisplay:10.37 W/m2 OVC
14:34 66.5 °F /  19.2 °C 63.1 °F /  17.3 °C 29.95in /  1014.1hPa NNE 4.6mph /  7.4km/h 4.6mph /  7.4km/h 89% 0.00in /  0mm WeatherDisplay:10.37 W/m2 OVC
14:39 66.5 °F /  19.2 °C 63.1 °F /  17.3 °C 29.95in /  1014.1hPa North 4.6mph /  7.4km/h 4.6mph /  7.4km/h 89% 0.00in /  0mm WeatherDisplay:10.37 W/m2 OVC
14:44 66.4 °F /  19.1 °C 63.0 °F /  17.2 °C 29.95in /  1014.1hPa NNE 6.9mph /  11.1km/h 6.9mph /  11.1km/h 89% 0.00in /  0mm WeatherDisplay:10.37 W/m2 OVC
14:49 66.5 °F /  19.2 °C 63.1 °F /  17.3 °C 29.95in /  1014.1hPa NNE 3.5mph /  5.6km/h 3.5mph /  5.6km/h 89% 0.00in /  0mm WeatherDisplay:10.37 W/m2 OVC
14:54 66.5 °F /  19.2 °C 63.1 °F /  17.3 °C 29.95in /  1014.1hPa North 8.1mph /  13km/h 8.1mph /  13km/h 89% 0.00in /  0mm WeatherDisplay:10.37 W/m2 OVC
14:59 66.6 °F /  19.2 °C 63.5 °F /  17.5 °C 29.94in /  1013.8hPa NE 2.3mph /  3.7km/h 2.3mph /  3.7km/h 90% 0.00in /  0mm WeatherDisplay:10.37 W/m2 OVC
15:04 66.8 °F /  19.3 °C 63.7 °F /  17.6 °C 29.94in /  1013.8hPa NNE 3.5mph /  5.6km/h 3.5mph /  5.6km/h 90% 0.00in /  0mm WeatherDisplay:10.37 W/m2 OVC
15:09 67.0 °F /  19.4 °C 63.6 °F /  17.6 °C 29.94in /  1013.8hPa NNE 4.0mph /  6.4km/h 4.0mph /  6.4km/h 89% 0.00in /  0mm WeatherDisplay:10.37 W/m2 OVC
15:14 67.3 °F /  19.6 °C 63.9 °F /  17.7 °C 29.94in /  1013.8hPa NNE 3.5mph /  5.6km/h 3.5mph /  5.6km/h 89% 0.00in /  0mm WeatherDisplay:10.37 W/m2 OVC
15:19 67.6 °F /  19.8 °C 63.9 °F /  17.7 °C 29.94in /  1013.8hPa East 5.8mph /  9.3km/h 5.8mph /  9.3km/h 88% 0.00in /  0mm WeatherDisplay:10.37 W/m2 OVC
15:24 67.8 °F /  19.9 °C 64.1 °F /  17.8 °C 29.94in /  1013.8hPa ENE 4.6mph /  7.4km/h 4.6mph /  7.4km/h 88% 0.00in /  0mm WeatherDisplay:10.37 W/m2 OVC
15:29 67.9 °F /  19.9 °C 64.2 °F /  17.9 °C 29.94in /  1013.8hPa NNE 6.9mph /  11.1km/h 6.9mph /  11.1km/h 88% 0.00in /  0mm WeatherDisplay:10.37 W/m2 OVC
15:34 67.6 °F /  19.8 °C 63.6 °F /  17.6 °C 29.94in /  1013.8hPa NNE 8.0mph /  12.9km/h 8.0mph /  12.9km/h 87% 0.00in /  0mm WeatherDisplay:10.37 W/m2 OVC
15:39 67.3 °F /  19.6 °C 63.6 °F /  17.6 °C 29.95in /  1014.1hPa NE 9.2mph /  14.8km/h 9.2mph /  14.8km/h 88% 0.00in /  0mm WeatherDisplay:10.37 W/m2 OVC
15:44 67.1 °F /  19.5 °C 63.4 °F /  17.4 °C 29.94in /  1013.8hPa NE 5.0mph /  8km/h 5.0mph /  8km/h 88% 0.00in /  0mm WeatherDisplay:10.37 W/m2 OVC
15:49 67.2 °F /  19.6 °C 63.5 °F /  17.5 °C 29.94in /  1013.8hPa NNE 5.0mph /  8km/h 5.0mph /  8km/h 88% 0.00in /  0mm WeatherDisplay:10.37 W/m2 OVC
15:54 67.2 °F /  19.6 °C 63.5 °F /  17.5 °C 29.94in /  1013.8hPa NNE 8.0mph /  12.9km/h 8.0mph /  12.9km/h 88% 0.00in /  0mm WeatherDisplay:10.37 W/m2 OVC
15:59 67.4 °F /  19.7 °C 63.7 °F /  17.6 °C 29.94in /  1013.8hPa NNE 8.1mph /  13km/h 8.1mph /  13km/h 88% 0.00in /  0mm WeatherDisplay:10.37 W/m2 OVC
16:04 67.4 °F /  19.7 °C 63.7 °F /  17.6 °C 29.94in /  1013.8hPa NNE 9.2mph /  14.8km/h 9.2mph /  14.8km/h 88% 0.00in /  0mm WeatherDisplay:10.37 W/m2 OVC
16:09 67.5 °F /  19.7 °C 63.8 °F /  17.7 °C 29.94in /  1013.8hPa ESE 5.8mph /  9.3km/h 5.8mph /  9.3km/h 88% 0.00in /  0mm WeatherDisplay:10.37 W/m2 OVC
16:14 67.5 °F /  19.7 °C 64.1 °F /  17.8 °C 29.94in /  1013.8hPa North 5.0mph /  8km/h 5.0mph /  8km/h 89% 0.00in /  0mm WeatherDisplay:10.37 W/m2 OVC
16:19 67.4 °F /  19.7 °C 63.7 °F /  17.6 °C 29.94in /  1013.8hPa NNE 6.9mph /  11.1km/h 6.9mph /  11.1km/h 88% 0.00in /  0mm WeatherDisplay:10.37 W/m2 OVC
16:24 67.3 °F /  19.6 °C 63.6 °F /  17.6 °C 29.94in /  1013.8hPa NNE 8.1mph /  13km/h 8.1mph /  13km/h 88% 0.00in /  0mm WeatherDisplay:10.37 W/m2 OVC
16:29 67.2 °F /  19.6 °C 63.5 °F /  17.5 °C 29.93in /  1013.4hPa NNE 3.5mph /  5.6km/h 3.5mph /  5.6km/h 88% 0.00in /  0mm WeatherDisplay:10.37 W/m2 OVC
16:34 67.2 °F /  19.6 °C 63.5 °F /  17.5 °C 29.93in /  1013.4hPa NNE 3.5mph /  5.6km/h 3.5mph /  5.6km/h 88% 0.00in /  0mm WeatherDisplay:10.37 W/m2 OVC
16:39 67.4 °F /  19.7 °C 63.7 °F /  17.6 °C 29.93in /  1013.4hPa NNE 4.6mph /  7.4km/h 4.6mph /  7.4km/h 88% 0.00in /  0mm WeatherDisplay:10.37 W/m2 OVC
16:44 67.4 °F /  19.7 °C 63.4 °F /  17.4 °C 29.93in /  1013.4hPa NNE 10.4mph /  16.7km/h 10.4mph /  16.7km/h 87% 0.00in /  0mm WeatherDisplay:10.37 W/m2 OVC
16:49 67.3 °F /  19.6 °C 63.6 °F /  17.6 °C 29.93in /  1013.4hPa NE 8.1mph /  13km/h 8.1mph /  13km/h 88% 0.00in /  0mm WeatherDisplay:10.37 W/m2 OVC
16:54 67.0 °F /  19.4 °C 63.3 °F /  17.4 °C 29.93in /  1013.4hPa NE 11.5mph /  18.5km/h 11.5mph /  18.5km/h 88% 0.00in /  0mm WeatherDisplay:10.37 W/m2 OVC
16:59 66.6 °F /  19.2 °C 63.2 °F /  17.3 °C 29.93in /  1013.4hPa NNE 10.4mph /  16.7km/h 10.4mph /  16.7km/h 89% 0.00in /  0mm WeatherDisplay:10.37 W/m2 OVC
17:04 66.3 °F /  19.1 °C 63.2 °F /  17.3 °C 29.93in /  1013.4hPa NE 9.2mph /  14.8km/h 9.2mph /  14.8km/h 90% 0.00in /  0mm WeatherDisplay:10.37 W/m2 OVC
17:09 66.2 °F /  19 °C 63.1 °F /  17.3 °C 29.93in /  1013.4hPa ENE 6.9mph /  11.1km/h 6.9mph /  11.1km/h 90% 0.00in /  0mm WeatherDisplay:10.37 W/m2 OVC
17:14 66.3 °F /  19.1 °C 63.2 °F /  17.3 °C 29.93in /  1013.4hPa NNE 9.2mph /  14.8km/h 9.2mph /  14.8km/h 90% 0.01in /  0.25mm WeatherDisplay:10.37 W/m2 RA
17:19 66.5 °F /  19.2 °C 63.1 °F /  17.3 °C 29.93in /  1013.4hPa NNE 6.0mph /  9.7km/h 6.0mph /  9.7km/h 89% 0.01in /  0.25mm WeatherDisplay:10.37 W/m2 RA
17:24 66.6 °F /  19.2 °C 63.2 °F /  17.3 °C 29.93in /  1013.4hPa NNE 6.9mph /  11.1km/h 6.9mph /  11.1km/h 89% 0.01in /  0.25mm WeatherDisplay:10.37 W/m2 OVC
17:29 66.7 °F /  19.3 °C 63.3 °F /  17.4 °C 29.93in /  1013.4hPa NNE 5.8mph /  9.3km/h 5.8mph /  9.3km/h 89% 0.01in /  0.25mm WeatherDisplay:10.37 W/m2 OVC
17:34 66.9 °F /  19.4 °C 63.5 °F /  17.5 °C 29.93in /  1013.4hPa NNE 5.8mph /  9.3km/h 5.8mph /  9.3km/h 89% 0.01in /  0.25mm WeatherDisplay:10.37 W/m2 OVC
17:39 67.0 °F /  19.4 °C 63.6 °F /  17.6 °C 29.93in /  1013.4hPa NE 6.9mph /  11.1km/h 6.9mph /  11.1km/h 89% 0.01in /  0.25mm WeatherDisplay:10.37 W/m2 OVC
17:44 67.1 °F /  19.5 °C 63.7 °F /  17.6 °C 29.93in /  1013.4hPa NNE 5.8mph /  9.3km/h 5.8mph /  9.3km/h 89% 0.01in /  0.25mm WeatherDisplay:10.37 W/m2 -DZ
17:49 67.2 °F /  19.6 °C 63.8 °F /  17.7 °C 29.93in /  1013.4hPa NE 9.0mph /  14.5km/h 9.0mph /  14.5km/h 89% 0.01in /  0.25mm WeatherDisplay:10.37 W/m2 -DZ
17:54 67.2 °F /  19.6 °C 63.8 °F /  17.7 °C 29.93in /  1013.4hPa ENE 4.6mph /  7.4km/h 4.6mph /  7.4km/h 89% 0.01in /  0.25mm WeatherDisplay:10.37 W/m2 -DZ
17:59 67.2 °F /  19.6 °C 63.8 °F /  17.7 °C 29.93in /  1013.4hPa ENE 4.6mph /  7.4km/h 4.6mph /  7.4km/h 89% 0.01in /  0.25mm WeatherDisplay:10.37 W/m2 -DZ
18:04 67.3 °F /  19.6 °C 63.9 °F /  17.7 °C 29.93in /  1013.4hPa NE 8.1mph /  13km/h 8.1mph /  13km/h 89% 0.01in /  0.25mm WeatherDisplay:10.37 W/m2 -DZ
18:09 67.4 °F /  19.7 °C 63.7 °F /  17.6 °C 29.93in /  1013.4hPa East 8.1mph /  13km/h 8.1mph /  13km/h 88% 0.01in /  0.25mm WeatherDisplay:10.37 W/m2 -DZ
18:14 67.6 °F /  19.8 °C 63.9 °F /  17.7 °C 29.93in /  1013.4hPa ENE 8.1mph /  13km/h 8.1mph /  13km/h 88% 0.00in /  0mm WeatherDisplay:10.37 W/m2 -DZ
18:19 68.0 °F /  20 °C 63.9 °F /  17.7 °C 29.93in /  1013.4hPa East 8.1mph /  13km/h 8.1mph /  13km/h 87% 0.00in /  0mm WeatherDisplay:10.37 W/m2 -DZ
18:24 68.5 °F /  20.3 °C 64.1 °F /  17.8 °C 29.93in /  1013.4hPa ENE 8.1mph /  13km/h 8.1mph /  13km/h 86% 0.00in /  0mm WeatherDisplay:10.37 W/m2 OVC
18:29 68.7 °F /  20.4 °C 63.6 °F /  17.6 °C 29.93in /  1013.4hPa East 10.4mph /  16.7km/h 10.4mph /  16.7km/h 84% 0.00in /  0mm WeatherDisplay:10.37 W/m2 OVC
18:34 68.8 °F /  20.4 °C 63.7 °F /  17.6 °C 29.93in /  1013.4hPa ENE 12.7mph /  20.4km/h 12.7mph /  20.4km/h 84% 0.00in /  0mm WeatherDisplay:10.37 W/m2 OVC
18:39 68.7 °F /  20.4 °C 63.6 °F /  17.6 °C 29.93in /  1013.4hPa ENE 9.2mph /  14.8km/h 9.2mph /  14.8km/h 84% 0.00in /  0mm WeatherDisplay:10.37 W/m2 OVC
18:44 68.7 °F /  20.4 °C 63.3 °F /  17.4 °C 29.93in /  1013.4hPa ENE 9.2mph /  14.8km/h 9.2mph /  14.8km/h 83% 0.00in /  0mm WeatherDisplay:10.37 W/m2 OVC
18:49 68.7 °F /  20.4 °C 63.6 °F /  17.6 °C 29.93in /  1013.4hPa ESE 5.8mph /  9.3km/h 5.8mph /  9.3km/h 84% 0.00in /  0mm WeatherDisplay:10.37 W/m2 OVC
18:54 68.7 °F /  20.4 °C 63.6 °F /  17.6 °C 29.93in /  1013.4hPa ESE 2.3mph /  3.7km/h 2.3mph /  3.7km/h 84% 0.00in /  0mm WeatherDisplay:10.37 W/m2 OVC
18:59 68.6 °F /  20.3 °C 63.5 °F /  17.5 °C 29.93in /  1013.4hPa ENE 8.1mph /  13km/h 8.1mph /  13km/h 84% 0.00in /  0mm WeatherDisplay:10.37 W/m2 OVC
19:04 68.5 °F /  20.3 °C 63.4 °F /  17.4 °C 29.93in /  1013.4hPa ENE 4.6mph /  7.4km/h 4.6mph /  7.4km/h 84% 0.00in /  0mm WeatherDisplay:10.37 W/m2 OVC
19:09 68.3 °F /  20.2 °C 63.6 °F /  17.6 °C 29.93in /  1013.4hPa East 3.5mph /  5.6km/h 3.5mph /  5.6km/h 85% 0.00in /  0mm WeatherDisplay:10.37 W/m2 OVC
19:14 68.2 °F /  20.1 °C 63.5 °F /  17.5 °C 29.93in /  1013.4hPa East 5.8mph /  9.3km/h 5.8mph /  9.3km/h 85% 0.00in /  0mm WeatherDisplay:10.37 W/m2 OVC
19:19 68.1 °F /  20.1 °C 63.0 °F /  17.2 °C 29.93in /  1013.4hPa East 4.6mph /  7.4km/h 4.6mph /  7.4km/h 84% 0.00in /  0mm WeatherDisplay:10.37 W/m2 OVC
19:24 68.0 °F /  20 °C 63.3 °F /  17.4 °C 29.93in /  1013.4hPa North 8.1mph /  13km/h 8.1mph /  13km/h 85% 0.00in /  0mm WeatherDisplay:10.37 W/m2 OVC
19:29 67.9 °F /  19.9 °C 63.2 °F /  17.3 °C 29.93in /  1013.4hPa East 6.9mph /  11.1km/h 6.9mph /  11.1km/h 85% 0.00in /  0mm WeatherDisplay:10.37 W/m2 OVC
19:34 67.8 °F /  19.9 °C 63.1 °F /  17.3 °C 29.93in /  1013.4hPa ESE 3.5mph /  5.6km/h 3.5mph /  5.6km/h 85% 0.00in /  0mm WeatherDisplay:10.37 W/m2 OVC
19:39 67.9 °F /  19.9 °C 62.8 °F /  17.1 °C 29.93in /  1013.4hPa East 8.1mph /  13km/h 8.1mph /  13km/h 84% 0.00in /  0mm WeatherDisplay:10.37 W/m2 OVC
19:44 68.0 °F /  20 °C 62.9 °F /  17.2 °C 29.93in /  1013.4hPa East 6.0mph /  9.7km/h 6.0mph /  9.7km/h 84% 0.00in /  0mm WeatherDisplay:10.37 W/m2 OVC
19:49 68.1 °F /  20.1 °C 63.0 °F /  17.2 °C 29.93in /  1013.4hPa ESE 4.6mph /  7.4km/h 4.6mph /  7.4km/h 84% 0.00in /  0mm WeatherDisplay:10.37 W/m2 OVC
19:54 68.1 °F /  20.1 °C 63.0 °F /  17.2 °C 29.93in /  1013.4hPa East 3.5mph /  5.6km/h 3.5mph /  5.6km/h 84% 0.00in /  0mm WeatherDisplay:10.37 W/m2 OVC
19:59 68.0 °F /  20 °C 63.3 °F /  17.4 °C 29.93in /  1013.4hPa East 2.3mph /  3.7km/h 2.3mph /  3.7km/h 85% 0.00in /  0mm WeatherDisplay:10.37 W/m2 OVC
20:04 67.9 °F /  19.9 °C 63.2 °F /  17.3 °C 29.93in /  1013.4hPa ESE 2.3mph /  3.7km/h 2.3mph /  3.7km/h 85% 0.00in /  0mm WeatherDisplay:10.37 W/m2 OVC
20:09 67.8 °F /  19.9 °C 63.1 °F /  17.3 °C 29.93in /  1013.4hPa NNE 6.9mph /  11.1km/h 6.9mph /  11.1km/h 85% 0.00in /  0mm WeatherDisplay:10.37 W/m2 OVC
20:14 67.7 °F /  19.8 °C 63.3 °F /  17.4 °C 29.93in /  1013.4hPa North 3.5mph /  5.6km/h 3.5mph /  5.6km/h 86% 0.00in /  0mm WeatherDisplay:10.37 W/m2 OVC
20:19 67.6 °F /  19.8 °C 63.2 °F /  17.3 °C 29.94in /  1013.8hPa North 2.3mph /  3.7km/h 2.3mph /  3.7km/h 86% 0.00in /  0mm WeatherDisplay:10.37 W/m2 OVC
20:24 67.5 °F /  19.7 °C 63.1 °F /  17.3 °C 29.94in /  1013.8hPa East 2.3mph /  3.7km/h 2.3mph /  3.7km/h 86% 0.00in /  0mm WeatherDisplay:10.37 W/m2 OVC
20:29 67.4 °F /  19.7 °C 63.0 °F /  17.2 °C 29.94in /  1013.8hPa East 3.0mph /  4.8km/h 3.0mph /  4.8km/h 86% 0.00in /  0mm WeatherDisplay:10.37 W/m2 OVC
20:34 67.3 °F /  19.6 °C 63.3 °F /  17.4 °C 29.94in /  1013.8hPa NE 3.5mph /  5.6km/h 3.5mph /  5.6km/h 87% 0.00in /  0mm WeatherDisplay:10.37 W/m2 OVC
20:39 67.1 °F /  19.5 °C 63.1 °F /  17.3 °C 29.94in /  1013.8hPa NE 4.0mph /  6.4km/h 4.0mph /  6.4km/h 87% 0.00in /  0mm WeatherDisplay:10.37 W/m2 OVC
20:44 66.9 °F /  19.4 °C 63.2 °F /  17.3 °C 29.94in /  1013.8hPa NNE 3.0mph /  4.8km/h 3.0mph /  4.8km/h 88% 0.00in /  0mm WeatherDisplay:10.37 W/m2 OVC
20:49 66.7 °F /  19.3 °C 63.0 °F /  17.2 °C 29.94in /  1013.8hPa NNE 4.6mph /  7.4km/h 4.6mph /  7.4km/h 88% 0.00in /  0mm WeatherDisplay:10.37 W/m2 OVC
20:54 66.7 °F /  19.3 °C 63.3 °F /  17.4 °C 29.94in /  1013.8hPa NNE 3.0mph /  4.8km/h 3.0mph /  4.8km/h 89% 0.00in /  0mm WeatherDisplay:10.37 W/m2 OVC
20:59 66.6 °F /  19.2 °C 62.9 °F /  17.2 °C 29.94in /  1013.8hPa NNE 3.5mph /  5.6km/h 3.5mph /  5.6km/h 88% 0.00in /  0mm WeatherDisplay:10.37 W/m2 OVC
21:04 66.5 °F /  19.2 °C 63.1 °F /  17.3 °C 29.94in /  1013.8hPa North 8.0mph /  12.9km/h 8.0mph /  12.9km/h 89% 0.00in /  0mm WeatherDisplay:10.37 W/m2 OVC
21:09 66.6 °F /  19.2 °C 62.9 °F /  17.2 °C 29.94in /  1013.8hPa NNE 3.5mph /  5.6km/h 3.5mph /  5.6km/h 88% 0.00in /  0mm WeatherDisplay:10.37 W/m2 OVC
21:14 66.6 °F /  19.2 °C 62.9 °F /  17.2 °C 29.94in /  1013.8hPa NNE 3.0mph /  4.8km/h 3.0mph /  4.8km/h 88% 0.00in /  0mm WeatherDisplay:10.37 W/m2 OVC
21:19 66.7 °F /  19.3 °C 63.0 °F /  17.2 °C 29.94in /  1013.8hPa North 4.0mph /  6.4km/h 4.0mph /  6.4km/h 88% 0.00in /  0mm WeatherDisplay:10.37 W/m2 OVC
21:20 66.7 °F /  19.3 °C 63.0 °F /  17.2 °C 29.94in /  1013.8hPa North 4.0mph /  6.4km/h 4.0mph /  6.4km/h 88% 0.00in /  0mm WeatherDisplay:10.37 W/m2 OVC
21:25 66.8 °F /  19.3 °C 63.1 °F /  17.3 °C 29.94in /  1013.8hPa North 3.5mph /  5.6km/h 3.5mph /  5.6km/h 88% 0.00in /  0mm WeatherDisplay:10.37 W/m2 OVC
21:30 66.8 °F /  19.3 °C 63.1 °F /  17.3 °C 29.94in /  1013.8hPa North 3.5mph /  5.6km/h 3.5mph /  5.6km/h 88% 0.00in /  0mm WeatherDisplay:10.37 W/m2 OVC
21:35 66.9 °F /  19.4 °C 63.2 °F /  17.3 °C 29.94in /  1013.8hPa North 2.3mph /  3.7km/h 2.3mph /  3.7km/h 88% 0.00in /  0mm WeatherDisplay:10.37 W/m2 OVC
21:40 67.0 °F /  19.4 °C 63.3 °F /  17.4 °C 29.94in /  1013.8hPa ENE 4.0mph /  6.4km/h 4.0mph /  6.4km/h 88% 0.00in /  0mm WeatherDisplay:10.37 W/m2 OVC
21:45 67.2 °F /  19.6 °C 63.5 °F /  17.5 °C 29.94in /  1013.8hPa East 2.3mph /  3.7km/h 2.3mph /  3.7km/h 88% 0.00in /  0mm WeatherDisplay:10.37 W/m2 OVC
21:50 67.2 °F /  19.6 °C 63.2 °F /  17.3 °C 29.94in /  1013.8hPa NNE 3.5mph /  5.6km/h 3.5mph /  5.6km/h 87% 0.00in /  0mm WeatherDisplay:10.37 W/m2 OVC
21:55 67.2 °F /  19.6 °C 63.5 °F /  17.5 °C 29.94in /  1013.8hPa SE 4.0mph /  6.4km/h 4.0mph /  6.4km/h 88% 0.00in /  0mm WeatherDisplay:10.37 W/m2 OVC
22:00 67.3 °F /  19.6 °C 63.3 °F /  17.4 °C 29.94in /  1013.8hPa East 6.0mph /  9.7km/h 6.0mph /  9.7km/h 87% 0.00in /  0mm WeatherDisplay:10.37 W/m2 OVC
22:05 67.4 °F /  19.7 °C 63.4 °F /  17.4 °C 29.94in /  1013.8hPa East 4.0mph /  6.4km/h 4.0mph /  6.4km/h 87% 0.00in /  0mm WeatherDisplay:10.37 W/m2 OVC
22:10 67.3 °F /  19.6 °C 63.3 °F /  17.4 °C 29.93in /  1013.4hPa East 4.6mph /  7.4km/h 4.6mph /  7.4km/h 87% 0.00in /  0mm WeatherDisplay:10.37 W/m2 OVC
22:15 67.4 °F /  19.7 °C 63.4 °F /  17.4 °C 29.93in /  1013.4hPa East 3.5mph /  5.6km/h 3.5mph /  5.6km/h 87% 0.00in /  0mm WeatherDisplay:10.37 W/m2 OVC
22:20 67.5 °F /  19.7 °C 63.5 °F /  17.5 °C 29.93in /  1013.4hPa East 3.5mph /  5.6km/h 3.5mph /  5.6km/h 87% 0.00in /  0mm WeatherDisplay:10.37 W/m2 OVC
22:25 67.5 °F /  19.7 °C 63.1 °F /  17.3 °C 29.92in /  1013.1hPa ENE 9.2mph /  14.8km/h 9.2mph /  14.8km/h 86% 0.00in /  0mm WeatherDisplay:10.37 W/m2 OVC
22:30 67.6 °F /  19.8 °C 63.2 °F /  17.3 °C 29.92in /  1013.1hPa ENE 5.0mph /  8km/h 10.0mph /  16.1km/h 86% 0.00in /  0mm WeatherDisplay:10.37 W/m2 OVC
22:32 67.5 °F /  19.7 °C 63.1 °F /  17.3 °C 29.92in /  1013.1hPa ENE 4.6mph /  7.4km/h 4.8mph /  7.7km/h 86% 0.00in /  0mm WeatherDisplay:10.37 W/m2 OVC
22:37 67.5 °F /  19.7 °C 63.1 °F /  17.3 °C 29.93in /  1013.4hPa South 3.5mph /  5.6km/h 3.5mph /  5.6km/h 86% 0.00in /  0mm WeatherDisplay:10.37 W/m2 OVC
22:42 67.5 °F /  19.7 °C 63.1 °F /  17.3 °C 29.93in /  1013.4hPa South 3.5mph /  5.6km/h 3.5mph /  5.6km/h 86% 0.00in /  0mm WeatherDisplay:10.37 W/m2 OVC
22:47 67.5 °F /  19.7 °C 62.8 °F /  17.1 °C 29.93in /  1013.4hPa South 1.2mph /  1.9km/h 1.2mph /  1.9km/h 85% 0.00in /  0mm WeatherDisplay:10.37 W/m2 OVC
22:52 67.4 °F /  19.7 °C 63.0 °F /  17.2 °C 29.93in /  1013.4hPa ESE 3.0mph /  4.8km/h 3.0mph /  4.8km/h 86% 0.00in /  0mm WeatherDisplay:10.37 W/m2 OVC
22:53 67.4 °F /  19.7 °C 63.0 °F /  17.2 °C 29.93in /  1013.4hPa ESE 3.5mph /  5.6km/h 3.5mph /  5.6km/h 86% 0.00in /  0mm WeatherDisplay:10.37 W/m2 OVC
22:58 67.2 °F /  19.6 °C 62.8 °F /  17.1 °C 29.93in /  1013.4hPa NE 5.0mph /  8km/h 5.0mph /  8km/h 86% 0.00in /  0mm WeatherDisplay:10.37 W/m2 OVC
23:03 67.6 °F /  19.8 °C 62.6 °F /  17 °C 29.93in /  1013.4hPa East 9.2mph /  14.8km/h 9.2mph /  14.8km/h 84% 0.00in /  0mm WeatherDisplay:10.37 W/m2 OVC
23:08 67.8 °F /  19.9 °C 62.4 °F /  16.9 °C 29.93in /  1013.4hPa East 2.0mph /  3.2km/h 2.0mph /  3.2km/h 83% 0.00in /  0mm WeatherDisplay:10.37 W/m2 OVC
23:13 68.0 °F /  20 °C 62.3 °F /  16.8 °C 29.93in /  1013.4hPa ESE 3.5mph /  5.6km/h 3.5mph /  5.6km/h 82% 0.00in /  0mm WeatherDisplay:10.37 W/m2 OVC
23:18 68.0 °F /  20 °C 62.3 °F /  16.8 °C 29.94in /  1013.8hPa ESE 3.5mph /  5.6km/h 3.5mph /  5.6km/h 82% 0.00in /  0mm WeatherDisplay:10.37 W/m2 OVC
23:19 68.0 °F /  20 °C 62.6 °F /  17 °C 29.84in /  1010.4hPa ESE 2.3mph /  3.7km/h 2.3mph /  3.7km/h 83% 0.00in /  0mm WeatherDisplay:10.37 W/m2 OVC
23:23 67.8 °F /  19.9 °C 62.4 °F /  16.9 °C 29.94in /  1013.8hPa ESE 2.3mph /  3.7km/h 2.3mph /  3.7km/h 83% 0.00in /  0mm WeatherDisplay:10.37 W/m2 OVC
23:25 67.7 °F /  19.8 °C 62.3 °F /  16.8 °C 29.84in /  1010.4hPa ESE 3.0mph /  4.8km/h 3.0mph /  4.8km/h 83% 0.00in /  0mm WeatherDisplay:10.37 W/m2 OVC
23:28 67.4 °F /  19.7 °C 62.4 °F /  16.9 °C 29.94in /  1013.8hPa North 4.6mph /  7.4km/h 4.6mph /  7.4km/h 84% 0.00in /  0mm WeatherDisplay:10.37 W/m2 OVC
23:33 67.1 °F /  19.5 °C 62.1 °F /  16.7 °C 29.94in /  1013.8hPa North 3.5mph /  5.6km/h 3.5mph /  5.6km/h 84% 0.00in /  0mm WeatherDisplay:10.37 W/m2 OVC
23:38 67.0 °F /  19.4 °C 62.0 °F /  16.7 °C 29.94in /  1013.8hPa East 3.5mph /  5.6km/h 3.5mph /  5.6km/h 84% 0.00in /  0mm WeatherDisplay:10.37 W/m2 OVC
23:43 67.3 °F /  19.6 °C 61.9 °F /  16.6 °C 29.94in /  1013.8hPa NE 6.9mph /  11.1km/h 6.9mph /  11.1km/h 83% 0.00in /  0mm WeatherDisplay:10.37 W/m2 OVC
23:48 67.8 °F /  19.9 °C 61.7 °F /  16.5 °C 29.93in /  1013.4hPa South 2.3mph /  3.7km/h 2.3mph /  3.7km/h 81% 0.00in /  0mm WeatherDisplay:10.37 W/m2 OVC
23:53 68.0 °F /  20 °C 61.9 °F /  16.6 °C 29.94in /  1013.8hPa East 4.6mph /  7.4km/h 4.6mph /  7.4km/h 81% 0.00in /  0mm WeatherDisplay:10.37 W/m2 OVC
23:58 68.1 °F /  20.1 °C 61.7 °F /  16.5 °C 29.94in /  1013.8hPa SSW 2.0mph /  3.2km/h 2.0mph /  3.2km/h 80% 0.00in /  0mm WeatherDisplay:10.37 W/m2 OVC
Smyth Weather
Compliments of Weather Underground - 3 mb